createdAt,value
2019-03-01T00:01:19.921Z,95564.04
2019-03-01T00:04:18.214Z,95567.52
2019-03-01T00:07:56.225Z,95567.19
2019-03-01T00:11:25.414Z,95565.58
2019-03-01T00:14:37.173Z,95562.05
2019-03-01T00:18:02.330Z,95551.63
2019-03-01T00:21:29.267Z,95560.11
2019-03-01T00:25:02.374Z,95551.80
2019-03-01T00:28:19.879Z,95552.63
2019-03-01T00:31:54.771Z,95552.29
2019-03-01T00:35:30.039Z,95544.66
2019-03-01T00:38:59.485Z,95556.30
2019-03-01T00:42:34.553Z,95551.17
2019-03-01T00:45:22.819Z,95555.88
2019-03-01T00:48:11.785Z,95539.09
2019-03-01T00:50:59.799Z,95534.77
2019-03-01T00:53:48.308Z,95527.59
2019-03-01T00:56:37.821Z,95529.00
2019-03-01T00:59:26.843Z,95560.39
2019-03-01T01:02:16.134Z,95538.27
2019-03-01T01:05:05.251Z,95543.13
2019-03-01T01:07:53.391Z,95537.60
2019-03-01T01:10:42.132Z,95549.41
2019-03-01T01:13:31.261Z,95531.33
2019-03-01T01:16:20.147Z,95532.69
2019-03-01T01:19:08.878Z,95521.09
2019-03-01T01:21:57.126Z,95522.81
2019-03-01T01:24:45.957Z,95514.31
2019-03-01T01:27:35.075Z,95511.03
2019-03-01T01:30:23.887Z,95492.91
2019-03-01T01:33:12.195Z,95493.88
2019-03-01T01:36:00.601Z,95489.08
2019-03-01T01:38:49.239Z,95488.31
2019-03-01T01:41:38.045Z,95478.31
2019-03-01T01:44:26.553Z,95480.02
2019-03-01T01:47:15.257Z,95472.98
2019-03-01T01:50:04.465Z,95474.07
2019-03-01T01:52:53.225Z,95467.99
2019-03-01T01:55:42.457Z,95474.00
2019-03-01T01:58:31.060Z,95467.09
2019-03-01T02:01:19.557Z,95470.04
2019-03-01T02:04:08.449Z,95460.02
2019-03-01T02:06:56.622Z,95450.59
2019-03-01T02:09:45.681Z,95458.81
2019-03-01T02:12:34.312Z,95447.92
2019-03-01T02:15:22.326Z,95441.39
2019-03-01T02:18:11.009Z,95437.41
2019-03-01T02:20:59.387Z,95432.43
2019-03-01T02:23:48.278Z,95429.18
2019-03-01T02:26:36.267Z,95440.07
2019-03-01T02:29:24.222Z,95440.89
2019-03-01T02:32:12.912Z,95442.33
2019-03-01T02:35:01.823Z,95434.45
2019-03-01T02:37:50.173Z,95428.83
2019-03-01T02:40:38.116Z,95417.06
2019-03-01T02:43:26.072Z,95414.59
2019-03-01T02:46:14.473Z,95410.63
2019-03-01T02:49:02.658Z,95398.23
2019-03-01T02:51:51.316Z,95393.25
2019-03-01T02:54:39.878Z,95390.27
2019-03-01T02:57:28.567Z,95386.36
2019-03-01T03:00:22.319Z,95383.42
2019-03-01T03:03:10.719Z,95375.05
2019-03-01T03:06:24.027Z,95374.48
2019-03-01T03:09:13.418Z,95368.47
2019-03-01T03:12:01.771Z,95370.66
2019-03-01T03:14:50.080Z,95370.66
2019-03-01T03:17:38.326Z,95376.14
2019-03-01T03:20:26.880Z,95371.89
2019-03-01T03:23:15.383Z,95363.14
2019-03-01T03:26:03.780Z,95369.29
2019-03-01T03:28:52.506Z,95358.63
2019-03-01T03:31:45.178Z,95361.17
2019-03-01T03:34:33.951Z,95366.37
2019-03-01T03:37:22.422Z,95355.63
2019-03-01T03:40:11.483Z,95363.90
2019-03-01T03:42:59.596Z,95367.80
2019-03-01T03:45:48.507Z,95359.34
2019-03-01T03:48:36.916Z,95357.66
2019-03-01T03:51:25.277Z,95356.02
2019-03-01T03:54:14.517Z,95349.23
2019-03-01T03:57:02.806Z,95346.16
2019-03-01T03:59:52.253Z,95342.73
2019-03-01T04:02:40.813Z,95339.73
2019-03-01T04:05:29.460Z,95331.47
2019-03-01T04:08:18.252Z,95328.13
2019-03-01T04:11:06.700Z,95321.55
2019-03-01T04:13:55.467Z,95322.03
2019-03-01T04:16:43.892Z,95319.08
2019-03-01T04:19:32.980Z,95314.02
2019-03-01T04:22:21.802Z,95310.05
2019-03-01T04:25:10.599Z,95308.70
2019-03-01T04:27:59.160Z,95309.18
2019-03-01T04:30:47.795Z,95307.45
2019-03-01T04:33:36.390Z,95316.06
2019-03-01T04:36:24.794Z,95306.77
2019-03-01T04:39:13.399Z,95312.38
2019-03-01T04:42:01.954Z,95308.75
2019-03-01T04:44:50.388Z,95305.74
2019-03-01T04:47:39.421Z,95307.38
2019-03-01T04:50:28.103Z,95299.66
2019-03-01T04:53:17.310Z,95297.81
2019-03-01T04:56:06.625Z,95291.58
2019-03-01T04:58:54.688Z,95292.80
2019-03-01T05:01:43.364Z,95294.10
2019-03-01T05:04:31.960Z,95291.81
2019-03-01T05:07:20.835Z,95298.64
2019-03-01T05:10:11.062Z,95292.22
2019-03-01T05:12:59.593Z,95289.23
2019-03-01T05:15:48.142Z,95290.59
2019-03-01T05:18:36.673Z,95286.69
2019-03-01T05:21:25.334Z,95284.98
2019-03-01T05:24:14.043Z,95284.42
2019-03-01T05:27:03.174Z,95276.22
2019-03-01T05:29:51.818Z,95273.28
2019-03-01T05:32:40.111Z,95286.61
2019-03-01T05:35:29.222Z,95276.23
2019-03-01T05:38:21.691Z,95302.72
2019-03-01T05:41:09.274Z,95310.95
2019-03-01T05:43:58.196Z,95308.98
2019-03-01T05:46:47.010Z,95303.74
2019-03-01T05:49:35.506Z,95290.73
2019-03-01T05:52:24.065Z,95294.09
2019-03-01T05:55:13.114Z,95289.44
2019-03-01T05:58:41.860Z,95289.38
2019-03-01T06:01:37.840Z,95285.13
2019-03-01T06:04:37.170Z,95276.88
2019-03-01T06:07:39.004Z,95277.63
2019-03-01T06:11:00.828Z,95270.67
2019-03-01T06:14:11.825Z,95266.78
2019-03-01T06:17:41.972Z,95272.92
2019-03-01T06:21:17.708Z,95273.33
2019-03-01T06:24:23.157Z,95268.95
2019-03-01T06:28:01.234Z,95264.36
2019-03-01T06:31:39.636Z,95268.60
2019-03-01T06:35:24.154Z,95267.67
2019-03-01T06:39:24.452Z,95260.98
2019-03-01T06:42:30.374Z,95257.62
2019-03-01T06:45:54.978Z,95256.31
2019-03-01T06:48:54.015Z,95261.52
2019-03-01T06:51:42.572Z,95263.11
2019-03-01T06:54:30.976Z,95260.46
2019-03-01T06:57:19.710Z,95263.41
2019-03-01T07:00:09.795Z,95264.59
2019-03-01T07:02:58.719Z,95266.42
2019-03-01T07:05:47.019Z,95268.61
2019-03-01T07:08:35.650Z,95267.88
2019-03-01T07:11:24.099Z,95261.83
2019-03-01T07:14:13.244Z,95269.15
2019-03-01T07:17:02.350Z,95263.56
2019-03-01T07:19:50.901Z,95261.05
2019-03-01T07:22:39.640Z,95266.66
2019-03-01T07:25:27.901Z,95261.03
2019-03-01T07:28:16.757Z,95264.25
2019-03-01T07:31:07.086Z,95266.48
2019-03-01T07:33:58.867Z,95267.44
2019-03-01T07:36:46.327Z,95263.61
2019-03-01T07:39:34.933Z,95261.66
2019-03-01T07:42:23.448Z,95264.45
2019-03-01T07:45:12.428Z,95273.58
2019-03-01T07:48:01.633Z,95266.34
2019-03-01T07:50:52.507Z,95264.16
2019-03-01T07:53:41.920Z,95264.70
2019-03-01T07:56:30.588Z,95277.11
2019-03-01T07:59:19.675Z,95271.95
2019-03-01T08:02:08.340Z,95274.17
2019-03-01T08:04:56.588Z,95274.41
2019-03-01T08:07:55.386Z,95276.95
2019-03-01T08:10:36.442Z,95277.06
2019-03-01T08:13:26.758Z,95281.47
2019-03-01T08:16:16.610Z,95281.41
2019-03-01T08:19:06.403Z,95278.93
2019-03-01T08:21:55.398Z,95278.62
2019-03-01T08:24:46.589Z,95276.45
2019-03-01T08:27:34.777Z,95278.59
2019-03-01T08:30:23.405Z,95277.28
2019-03-01T08:33:13.399Z,95275.09
2019-03-01T08:36:02.448Z,95269.92
2019-03-01T08:38:52.024Z,95275.63
2019-03-01T08:41:41.109Z,95284.69
2019-03-01T08:44:30.181Z,95280.77
2019-03-01T08:47:23.283Z,95273.14
2019-03-01T08:50:10.840Z,95271.33
2019-03-01T08:52:59.451Z,95273.56
2019-03-01T08:55:48.246Z,95267.97
2019-03-01T08:58:37.731Z,95265.16
2019-03-01T09:01:26.948Z,95265.14
2019-03-01T09:04:17.672Z,95260.49
2019-03-01T09:07:05.150Z,95260.14
2019-03-01T09:09:57.197Z,95258.00
2019-03-01T09:12:44.262Z,95254.02
2019-03-01T09:15:32.989Z,95252.23
2019-03-01T09:18:23.199Z,95246.47
2019-03-01T09:21:12.938Z,95249.77
2019-03-01T09:24:02.270Z,95252.19
2019-03-01T09:26:51.664Z,95244.83
2019-03-01T09:29:41.928Z,95247.99
2019-03-01T09:32:33.844Z,95245.70
2019-03-01T09:35:44.005Z,95240.56
2019-03-01T09:38:32.998Z,95244.34
2019-03-01T09:41:21.779Z,95242.57
2019-03-01T09:44:10.694Z,95233.47
2019-03-01T09:47:01.731Z,95231.58
2019-03-01T09:49:49.662Z,95240.42
2019-03-01T09:52:38.798Z,95234.06
2019-03-01T09:55:27.091Z,95235.81
2019-03-01T09:58:16.233Z,95233.45
2019-03-01T10:01:11.243Z,95230.80
2019-03-01T10:04:01.005Z,95232.96
2019-03-01T10:06:49.315Z,95226.95
2019-03-01T10:09:38.663Z,95226.34
2019-03-01T10:12:27.849Z,95227.97
2019-03-01T10:15:16.306Z,95220.31
2019-03-01T10:18:04.895Z,95222.50
2019-03-01T10:20:53.735Z,95219.98
2019-03-01T10:23:42.223Z,95219.69
2019-03-01T10:26:30.577Z,95229.30
2019-03-01T10:29:19.253Z,95225.69
2019-03-01T10:32:07.808Z,95231.53
2019-03-01T10:34:56.788Z,95228.73
2019-03-01T10:37:45.668Z,95235.16
2019-03-01T10:40:33.953Z,95230.43
2019-03-01T10:43:23.506Z,95230.02
2019-03-01T10:46:12.119Z,95230.30
2019-03-01T10:49:00.746Z,95226.88
2019-03-01T10:51:50.372Z,95226.67
2019-03-01T10:54:39.301Z,95222.34
2019-03-01T10:57:27.834Z,95230.91
2019-03-01T11:00:21.320Z,95226.11
2019-03-01T11:03:09.809Z,95232.27
2019-03-01T11:05:58.701Z,95211.39
2019-03-01T11:08:47.014Z,95218.62
2019-03-01T11:11:35.213Z,95224.72
2019-03-01T11:14:24.377Z,95224.08
2019-03-01T11:17:13.282Z,95222.64
2019-03-01T11:20:02.265Z,95216.63
2019-03-01T11:22:51.608Z,95221.70
2019-03-01T11:25:40.706Z,95217.47
2019-03-01T11:28:29.773Z,95213.92
2019-03-01T11:31:18.739Z,95225.73
2019-03-01T11:34:07.332Z,95221.76
2019-03-01T11:36:56.138Z,95218.62
2019-03-01T11:39:45.354Z,95226.06
2019-03-01T11:42:34.479Z,95225.09
2019-03-01T11:45:22.871Z,95234.93
2019-03-01T11:48:10.949Z,95227.09
2019-03-01T11:50:59.641Z,95230.97
2019-03-01T11:53:48.422Z,95237.06
2019-03-01T11:56:36.774Z,95233.11
2019-03-01T11:59:25.140Z,95233.84
2019-03-01T12:02:14.375Z,95232.62
2019-03-01T12:05:03.135Z,95230.50
2019-03-01T12:07:51.701Z,95223.66
2019-03-01T12:10:40.200Z,95233.16
2019-03-01T12:13:28.405Z,95228.86
2019-03-01T12:16:16.823Z,95225.09
2019-03-01T12:19:05.394Z,95233.48
2019-03-01T12:21:54.475Z,95233.56
2019-03-01T12:24:43.374Z,95239.34
2019-03-01T12:27:32.070Z,95234.28
2019-03-01T12:30:21.932Z,95233.91
2019-03-01T12:33:10.373Z,95234.88
2019-03-01T12:35:58.682Z,95234.41
2019-03-01T12:38:46.812Z,95234.88
2019-03-01T12:41:35.469Z,95234.41
2019-03-01T12:44:23.956Z,95234.73
2019-03-01T12:47:12.836Z,95236.70
2019-03-01T12:50:01.350Z,95241.29
2019-03-01T12:52:50.273Z,95240.70
2019-03-01T12:55:38.964Z,95240.42
2019-03-01T12:58:27.769Z,95248.14
2019-03-01T13:01:16.724Z,95240.77
2019-03-01T13:04:05.231Z,95244.51
2019-03-01T13:06:53.969Z,95241.23
2019-03-01T13:09:43.069Z,95240.29
2019-03-01T13:12:31.923Z,95245.48
2019-03-01T13:15:20.526Z,95240.22
2019-03-01T13:18:10.357Z,95238.92
2019-03-01T13:20:59.546Z,95246.71
2019-03-01T13:23:48.322Z,95235.34
2019-03-01T13:26:37.632Z,95247.41
2019-03-01T13:29:26.966Z,95245.51
2019-03-01T13:32:15.961Z,95236.84
2019-03-01T13:35:05.806Z,95234.59
2019-03-01T13:37:55.564Z,95227.95
2019-03-01T13:40:44.423Z,95230.91
2019-03-01T13:43:33.360Z,95234.31
2019-03-01T13:46:22.315Z,95238.33
2019-03-01T13:49:11.488Z,95241.22
2019-03-01T13:52:00.467Z,95248.58
2019-03-01T13:54:49.231Z,95246.48
2019-03-01T13:57:37.718Z,95247.64
2019-03-01T14:00:26.312Z,95254.20
2019-03-01T14:03:15.370Z,95258.58
2019-03-01T14:06:04.488Z,95252.86
2019-03-01T14:08:53.593Z,95248.89
2019-03-01T14:11:42.772Z,95252.63
2019-03-01T14:14:31.851Z,95257.09
2019-03-01T14:17:21.098Z,95265.81
2019-03-01T14:20:19.062Z,95265.05
2019-03-01T14:23:04.390Z,95256.30
2019-03-01T14:25:54.546Z,95258.02
2019-03-01T14:28:43.725Z,95253.36
2019-03-01T14:31:32.940Z,95252.77
2019-03-01T14:34:21.138Z,95250.23
2019-03-01T14:37:10.099Z,95257.95
2019-03-01T14:39:59.094Z,95246.09
2019-03-01T14:42:48.373Z,95254.23
2019-03-01T14:45:36.993Z,95268.44
2019-03-01T14:48:26.087Z,95256.59
2019-03-01T14:51:14.762Z,95252.00
2019-03-01T14:54:07.054Z,95261.83
2019-03-01T14:57:10.627Z,95254.81
2019-03-01T15:00:14.657Z,95259.94
2019-03-01T15:03:26.503Z,95252.63
2019-03-01T15:06:18.697Z,95251.75
2019-03-01T15:09:07.808Z,95261.58
2019-03-01T15:11:56.298Z,95257.41
2019-03-01T15:14:49.579Z,95267.31
2019-03-01T15:17:35.766Z,95261.23
2019-03-01T15:20:24.474Z,95263.77
2019-03-01T15:23:15.045Z,95266.29
2019-03-01T15:26:05.303Z,95260.26
2019-03-01T15:28:58.849Z,95264.61
2019-03-01T15:31:51.096Z,95261.95
2019-03-01T15:34:39.336Z,95263.25
2019-03-01T15:37:31.008Z,95268.27
2019-03-01T15:40:18.469Z,95268.19
2019-03-01T15:43:09.156Z,95267.03
2019-03-01T15:45:58.421Z,95269.34
2019-03-01T15:48:46.972Z,95275.77
2019-03-01T15:51:38.226Z,95273.27
2019-03-01T15:54:26.515Z,95271.52
2019-03-01T15:57:15.354Z,95275.41
2019-03-01T16:00:05.898Z,95284.78
2019-03-01T16:02:54.290Z,95283.41
2019-03-01T16:05:42.492Z,95289.84
2019-03-01T16:08:30.561Z,95280.06
2019-03-01T16:11:19.449Z,95297.45
2019-03-01T16:14:08.242Z,95304.05
2019-03-01T16:16:56.631Z,95304.42
2019-03-01T16:19:47.023Z,95309.78
2019-03-01T16:22:35.657Z,95310.96
2019-03-01T16:25:24.232Z,95311.48
2019-03-01T16:28:14.642Z,95321.03
2019-03-01T16:31:03.337Z,95319.27
2019-03-01T16:33:51.736Z,95326.67
2019-03-01T16:36:47.621Z,95334.88
2019-03-01T16:39:35.776Z,95339.53
2019-03-01T16:42:24.765Z,95336.94
2019-03-01T16:45:13.973Z,95329.94
2019-03-01T16:48:02.899Z,95329.11
2019-03-01T16:50:51.616Z,95344.77
2019-03-01T16:53:41.529Z,95358.67
2019-03-01T16:56:30.894Z,95352.14
2019-03-01T16:59:19.860Z,95359.08
2019-03-01T17:02:09.125Z,95360.75
2019-03-01T17:04:59.755Z,95360.75
2019-03-01T17:07:48.027Z,95369.35
2019-03-01T17:10:36.167Z,95370.66
2019-03-01T17:13:27.028Z,95372.89
2019-03-01T17:16:14.939Z,95384.55
2019-03-01T17:19:03.835Z,95388.08
2019-03-01T17:21:52.314Z,95388.17
2019-03-01T17:24:41.312Z,95402.80
2019-03-01T17:27:30.021Z,95395.03
2019-03-01T17:30:19.317Z,95398.45
2019-03-01T17:33:09.755Z,95394.98
2019-03-01T17:36:00.047Z,95400.62
2019-03-01T17:38:49.137Z,95404.98
2019-03-01T17:41:37.715Z,95415.45
2019-03-01T17:44:26.815Z,95424.00
2019-03-01T17:47:16.187Z,95425.31
2019-03-01T17:50:05.428Z,95424.02
2019-03-01T17:52:55.601Z,95423.59
2019-03-01T17:55:44.538Z,95422.34
2019-03-01T17:58:32.863Z,95432.35
2019-03-01T18:01:21.087Z,95432.72
2019-03-01T18:04:09.725Z,95437.48
2019-03-01T18:06:58.953Z,95431.41
2019-03-01T18:09:47.545Z,95426.28
2019-03-01T18:12:36.467Z,95428.91
2019-03-01T18:15:25.405Z,95433.69
2019-03-01T18:18:14.610Z,95437.63
2019-03-01T18:21:03.582Z,95435.50
2019-03-01T18:23:52.479Z,95435.91
2019-03-01T18:26:41.495Z,95428.51
2019-03-01T18:29:29.926Z,95436.28
2019-03-01T18:32:18.912Z,95447.44
2019-03-01T18:35:11.369Z,95458.68
2019-03-01T18:37:58.540Z,95459.42
2019-03-01T18:40:48.511Z,95460.67
2019-03-01T18:43:37.752Z,95459.42
2019-03-01T18:46:27.057Z,95468.55
2019-03-01T18:49:16.757Z,95466.27
2019-03-01T18:52:05.796Z,95464.98
2019-03-01T18:54:55.026Z,95461.46
2019-03-01T18:57:44.020Z,95465.86
2019-03-01T19:00:36.929Z,95466.42
2019-03-01T19:03:26.679Z,95473.31
2019-03-01T19:06:16.300Z,95473.41
2019-03-01T19:09:08.013Z,95474.28
2019-03-01T19:11:57.261Z,95468.68
2019-03-01T19:14:45.620Z,95481.64
2019-03-01T19:17:36.762Z,95489.87
2019-03-01T19:20:26.652Z,95490.26
2019-03-01T19:23:15.632Z,95496.82
2019-03-01T19:26:04.049Z,95501.08
2019-03-01T19:28:53.458Z,95502.38
2019-03-01T19:31:42.518Z,95503.68
2019-03-01T19:34:31.476Z,95511.13
2019-03-01T19:37:20.866Z,95517.55
2019-03-01T19:40:12.165Z,95529.27
2019-03-01T19:43:00.971Z,95529.72
2019-03-01T19:45:49.906Z,95534.48
2019-03-01T19:48:39.134Z,95532.69
2019-03-01T19:51:28.434Z,95535.63
2019-03-01T19:54:17.481Z,95536.53
2019-03-01T19:57:06.532Z,95545.16
2019-03-01T19:59:55.304Z,95543.90
2019-03-01T20:02:44.452Z,95537.80
2019-03-01T20:05:33.176Z,95537.45
2019-03-01T20:08:22.459Z,95543.90
2019-03-01T20:11:11.660Z,95550.34
2019-03-01T20:14:00.741Z,95547.78
2019-03-01T20:16:49.667Z,95544.28
2019-03-01T20:19:38.926Z,95550.46
2019-03-01T20:22:27.477Z,95550.05
2019-03-01T20:25:17.441Z,95550.45
2019-03-01T20:28:06.754Z,95554.77
2019-03-01T20:30:55.937Z,95559.91
2019-03-01T20:33:45.238Z,95561.16
2019-03-01T20:36:34.307Z,95566.34
2019-03-01T20:39:23.214Z,95563.80
2019-03-01T20:42:12.194Z,95559.87
2019-03-01T20:45:00.838Z,95561.20
2019-03-01T20:47:50.528Z,95563.76
2019-03-01T20:50:40.007Z,95568.03
2019-03-01T20:53:28.926Z,95567.15
2019-03-01T20:56:18.212Z,95565.81
2019-03-01T20:59:06.992Z,95578.89
2019-03-01T21:01:56.438Z,95568.94
2019-03-01T21:04:53.203Z,95574.63
2019-03-01T21:07:35.702Z,95575.16
2019-03-01T21:10:25.211Z,95582.86
2019-03-01T21:13:14.313Z,95580.27
2019-03-01T21:16:03.447Z,95579.84
2019-03-01T21:18:52.374Z,95584.53
2019-03-01T21:21:40.769Z,95583.69
2019-03-01T21:24:29.374Z,95582.78
2019-03-01T21:27:18.325Z,95586.67
2019-03-01T21:30:11.531Z,95580.72
2019-03-01T21:33:00.440Z,95583.77
2019-03-01T21:35:51.164Z,95597.26
2019-03-01T21:38:39.928Z,95601.15
2019-03-01T21:41:28.221Z,95596.80
2019-03-01T21:44:17.051Z,95598.98
2019-03-01T21:47:06.857Z,95606.67
2019-03-01T21:49:55.897Z,95601.15
2019-03-01T21:52:44.618Z,95602.45
2019-03-01T21:55:32.812Z,95600.23
2019-03-01T21:58:21.474Z,95595.09
2019-03-01T22:01:09.968Z,95603.70
2019-03-01T22:03:59.243Z,95599.85
2019-03-01T22:06:49.174Z,95597.64
2019-03-01T22:09:38.138Z,95599.39
2019-03-01T22:12:26.095Z,95598.98
2019-03-01T22:15:25.472Z,95601.14
2019-03-01T22:18:14.167Z,95601.60
2019-03-01T22:21:02.707Z,95596.38
2019-03-01T22:23:54.052Z,95594.64
2019-03-01T22:26:42.766Z,95600.23
2019-03-01T22:29:31.540Z,95606.26
2019-03-01T22:32:20.356Z,95603.66
2019-03-01T22:35:10.610Z,95597.15
2019-03-01T22:38:00.965Z,95601.91
2019-03-01T22:40:49.406Z,95603.28
2019-03-01T22:43:40.223Z,95607.20
2019-03-01T22:46:28.107Z,95608.05
2019-03-01T22:49:17.326Z,95606.37
2019-03-01T22:52:06.286Z,95605.08
2019-03-01T22:54:57.709Z,95611.16
2019-03-01T22:57:45.217Z,95614.56
2019-03-01T23:01:21.887Z,95609.45
2019-03-01T23:04:10.909Z,95612.88
2019-03-01T23:06:59.048Z,95609.48
2019-03-01T23:09:47.590Z,95623.24
2019-03-01T23:12:36.216Z,95619.33
2019-03-01T23:15:24.849Z,95624.50
2019-03-01T23:18:13.737Z,95620.69
2019-03-01T23:21:02.128Z,95622.41
2019-03-01T23:23:49.988Z,95628.84
2019-03-01T23:26:37.875Z,95635.78
2019-03-01T23:29:26.182Z,95627.97
2019-03-01T23:32:15.518Z,95632.70
2019-03-01T23:35:04.600Z,95627.06
2019-03-01T23:37:52.752Z,95625.31
2019-03-01T23:40:40.917Z,95625.42
2019-03-01T23:43:30.895Z,95624.55
2019-03-01T23:46:19.074Z,95628.88
2019-03-01T23:49:07.692Z,95623.70
2019-03-01T23:51:56.272Z,95630.24
2019-03-01T23:54:45.307Z,95633.16
2019-03-01T23:57:38.057Z,95631.89
